createdAt,value
2023-02-17T00:01:13.714Z,100.00
2023-02-17T00:03:41.583Z,100.00
2023-02-17T00:06:10.306Z,100.00
2023-02-17T00:08:38.291Z,100.00
2023-02-17T00:11:06.490Z,100.00
2023-02-17T00:13:34.589Z,100.00
2023-02-17T00:16:08.851Z,100.00
2023-02-17T00:18:37.018Z,100.00
2023-02-17T00:21:15.619Z,100.00
2023-02-17T00:23:44.036Z,100.00
2023-02-17T00:26:12.001Z,100.00
2023-02-17T00:28:39.847Z,100.00
2023-02-17T00:31:12.766Z,100.00
2023-02-17T00:33:40.726Z,100.00
2023-02-17T00:36:10.072Z,100.00
2023-02-17T00:38:37.937Z,100.00
2023-02-17T00:41:05.982Z,100.00
2023-02-17T00:43:33.752Z,100.00
2023-02-17T00:46:01.618Z,100.00
2023-02-17T00:48:29.472Z,100.00
2023-02-17T00:50:57.349Z,100.00
2023-02-17T00:53:25.172Z,100.00
2023-02-17T00:55:52.983Z,100.00
2023-02-17T00:58:20.966Z,100.00
2023-02-17T01:00:48.784Z,100.00
2023-02-17T01:03:16.587Z,100.00
2023-02-17T01:05:45.181Z,100.00
2023-02-17T01:08:13.094Z,100.00
2023-02-17T01:10:41.461Z,100.00
2023-02-17T01:13:09.487Z,100.00
2023-02-17T01:15:43.600Z,100.00
2023-02-17T01:18:11.348Z,100.00
2023-02-17T01:20:39.618Z,100.00
2023-02-17T01:23:07.795Z,100.00
2023-02-17T01:25:53.532Z,100.00
2023-02-17T01:28:22.097Z,100.00
2023-02-17T01:30:50.291Z,100.00
2023-02-17T01:33:18.414Z,100.00
2023-02-17T01:35:46.186Z,100.00
2023-02-17T01:38:13.908Z,100.00
2023-02-17T01:40:49.124Z,100.00
2023-02-17T01:43:18.301Z,100.00
2023-02-17T01:45:53.079Z,100.00
2023-02-17T01:48:23.753Z,100.00
2023-02-17T01:50:57.007Z,100.00
2023-02-17T01:53:28.762Z,100.00
2023-02-17T01:55:56.649Z,100.00
2023-02-17T01:58:24.733Z,100.00
2023-02-17T02:00:53.290Z,100.00
2023-02-17T02:03:21.228Z,100.00
2023-02-17T02:05:49.088Z,100.00
2023-02-17T02:08:16.911Z,100.00
2023-02-17T02:10:44.597Z,100.00
2023-02-17T02:13:12.399Z,100.00
2023-02-17T02:15:51.006Z,100.00
2023-02-17T02:18:33.561Z,100.00
2023-02-17T02:21:10.088Z,100.00
2023-02-17T02:24:08.502Z,100.00
2023-02-17T02:27:20.890Z,100.00
2023-02-17T02:30:14.976Z,100.00
2023-02-17T02:33:02.957Z,100.00
2023-02-17T02:36:01.240Z,100.00
2023-02-17T02:38:48.228Z,100.00
2023-02-17T02:41:25.027Z,100.00
2023-02-17T02:43:53.458Z,100.00
2023-02-17T02:46:21.220Z,100.00
2023-02-17T02:48:48.961Z,100.00
2023-02-17T02:51:29.265Z,100.00
2023-02-17T02:54:09.958Z,90.58
2023-02-17T02:56:37.873Z,91.95
2023-02-17T02:59:20.847Z,94.80
2023-02-17T03:02:13.558Z,89.09
2023-02-17T03:04:47.594Z,85.69
2023-02-17T03:07:22.310Z,82.07
2023-02-17T03:09:54.159Z,85.81
2023-02-17T03:12:22.270Z,87.19
2023-02-17T03:14:51.617Z,89.49
2023-02-17T03:17:19.486Z,88.14
2023-02-17T03:19:48.871Z,86.67
2023-02-17T03:22:23.498Z,86.64
2023-02-17T03:24:51.367Z,85.91
2023-02-17T03:27:19.373Z,88.13
2023-02-17T03:29:47.140Z,86.71
2023-02-17T03:32:15.022Z,87.98
2023-02-17T03:34:42.851Z,88.30
2023-02-17T03:37:10.565Z,88.41
2023-02-17T03:39:38.458Z,89.66
2023-02-17T03:42:06.385Z,86.92
2023-02-17T03:44:34.260Z,87.49
2023-02-17T03:47:02.086Z,88.95
2023-02-17T03:49:30.010Z,82.97
2023-02-17T03:51:59.285Z,79.76
2023-02-17T03:54:27.889Z,80.54
2023-02-17T03:56:55.619Z,81.02
2023-02-17T03:59:23.539Z,78.45
2023-02-17T04:01:51.363Z,79.70
2023-02-17T04:04:19.384Z,78.68
2023-02-17T04:06:47.217Z,79.41
2023-02-17T04:09:15.000Z,80.96
2023-02-17T04:11:44.210Z,80.41
2023-02-17T04:14:12.046Z,82.25
2023-02-17T04:16:40.399Z,83.01
2023-02-17T04:19:08.633Z,84.82
2023-02-17T04:21:36.516Z,85.81
2023-02-17T04:24:04.522Z,85.67
2023-02-17T04:26:32.427Z,85.21
2023-02-17T04:29:00.266Z,82.94
2023-02-17T04:31:29.222Z,82.30
2023-02-17T04:33:57.208Z,83.42
2023-02-17T04:36:25.086Z,82.16
2023-02-17T04:38:52.942Z,81.78
2023-02-17T04:41:20.685Z,82.75
2023-02-17T04:43:48.541Z,80.94
2023-02-17T04:46:16.324Z,83.04
2023-02-17T04:48:44.166Z,82.23
2023-02-17T04:51:11.926Z,82.13
2023-02-17T04:53:39.782Z,82.17
2023-02-17T04:56:08.243Z,81.50
2023-02-17T04:58:36.304Z,80.59
2023-02-17T05:01:04.046Z,80.18
2023-02-17T05:03:31.812Z,81.85
2023-02-17T05:05:59.646Z,80.68
2023-02-17T05:08:27.593Z,80.06
2023-02-17T05:10:55.393Z,79.49
2023-02-17T05:13:23.242Z,79.69
2023-02-17T05:15:51.150Z,79.76
2023-02-17T05:18:18.961Z,78.93
2023-02-17T05:20:46.810Z,79.55
2023-02-17T05:23:15.512Z,79.87
2023-02-17T05:25:43.263Z,79.76
2023-02-17T05:28:11.171Z,79.78
2023-02-17T05:30:39.009Z,80.35
2023-02-17T05:33:06.803Z,79.32
2023-02-17T05:35:36.452Z,80.01
2023-02-17T05:38:04.291Z,78.62
2023-02-17T05:40:32.058Z,79.00
2023-02-17T05:42:59.900Z,80.13
2023-02-17T05:45:27.685Z,80.36
2023-02-17T05:47:55.476Z,80.36
2023-02-17T05:50:23.326Z,79.32
2023-02-17T05:52:51.155Z,79.71
2023-02-17T05:55:19.035Z,79.74
2023-02-17T05:57:46.814Z,79.59
2023-02-17T06:00:15.365Z,78.09
2023-02-17T06:02:43.287Z,78.04
2023-02-17T06:05:11.337Z,77.76
2023-02-17T06:07:39.239Z,77.56
2023-02-17T06:10:07.720Z,78.44
2023-02-17T06:12:35.641Z,78.47
2023-02-17T06:15:03.519Z,78.78
2023-02-17T06:17:31.544Z,79.28
2023-02-17T06:19:59.356Z,79.79
2023-02-17T06:22:27.183Z,79.69
2023-02-17T06:24:54.996Z,79.65
2023-02-17T06:27:22.853Z,80.22
2023-02-17T06:29:50.748Z,80.03
2023-02-17T06:32:18.586Z,80.28
2023-02-17T06:34:46.332Z,80.67
2023-02-17T06:37:14.092Z,80.72
2023-02-17T06:39:41.859Z,81.22
2023-02-17T06:42:09.662Z,81.01
2023-02-17T06:44:37.500Z,80.52
2023-02-17T06:47:05.576Z,80.23
2023-02-17T06:49:33.281Z,80.28
2023-02-17T06:52:01.048Z,79.96
2023-02-17T06:54:28.868Z,77.20
2023-02-17T06:56:56.784Z,75.34
2023-02-17T06:59:24.660Z,75.18
2023-02-17T07:01:52.497Z,76.50
2023-02-17T07:04:20.278Z,74.46
2023-02-17T07:06:48.163Z,75.06
2023-02-17T07:09:15.933Z,74.28
2023-02-17T07:11:45.721Z,73.34
2023-02-17T07:14:13.530Z,74.21
2023-02-17T07:16:41.487Z,74.09
2023-02-17T07:19:09.238Z,74.21
2023-02-17T07:21:36.992Z,73.66
2023-02-17T07:24:04.940Z,74.09
2023-02-17T07:26:36.511Z,78.27
2023-02-17T07:29:05.294Z,85.58
2023-02-17T07:31:33.444Z,82.62
2023-02-17T07:34:02.199Z,82.88
2023-02-17T07:36:30.149Z,72.60
2023-02-17T07:38:58.123Z,69.55
2023-02-17T07:41:29.697Z,71.96
2023-02-17T07:43:58.147Z,70.92
2023-02-17T07:46:26.194Z,68.09
2023-02-17T07:48:54.055Z,70.29
2023-02-17T07:51:22.846Z,69.08
2023-02-17T07:53:50.938Z,69.10
2023-02-17T07:56:21.002Z,68.94
2023-02-17T07:58:49.209Z,67.33
2023-02-17T08:01:22.264Z,68.23
2023-02-17T08:03:50.222Z,67.42
2023-02-17T08:06:20.186Z,67.79
2023-02-17T08:09:06.700Z,65.86
2023-02-17T08:11:53.124Z,67.26
2023-02-17T08:14:24.707Z,65.80
2023-02-17T08:16:52.638Z,66.52
2023-02-17T08:19:20.489Z,66.50
2023-02-17T08:21:48.411Z,66.67
2023-02-17T08:24:17.438Z,65.91
2023-02-17T08:26:45.287Z,63.45
2023-02-17T08:29:13.103Z,63.83
2023-02-17T08:31:41.081Z,65.07
2023-02-17T08:34:09.884Z,65.57
2023-02-17T08:36:40.492Z,64.93
2023-02-17T08:39:12.368Z,63.36
2023-02-17T08:41:40.531Z,62.64
2023-02-17T08:44:13.501Z,62.17
2023-02-17T08:46:41.414Z,61.82
2023-02-17T08:49:09.285Z,62.97
2023-02-17T08:51:37.282Z,63.04
2023-02-17T08:54:05.806Z,63.30
2023-02-17T08:56:33.684Z,62.11
2023-02-17T08:59:01.603Z,62.87
2023-02-17T09:01:29.447Z,61.89
2023-02-17T09:03:58.354Z,60.88
2023-02-17T09:06:26.434Z,58.56
2023-02-17T09:08:54.290Z,58.65
2023-02-17T09:11:22.037Z,60.64
2023-02-17T09:13:49.930Z,60.03
2023-02-17T09:16:20.084Z,60.15
2023-02-17T09:18:47.998Z,59.79
2023-02-17T09:21:15.812Z,60.30
2023-02-17T09:23:43.722Z,60.38
2023-02-17T09:26:12.687Z,60.50
2023-02-17T09:28:40.628Z,60.63
2023-02-17T09:31:19.467Z,61.20
2023-02-17T09:33:48.936Z,59.18
2023-02-17T09:36:19.643Z,61.06
2023-02-17T09:38:47.466Z,59.28
2023-02-17T09:41:48.430Z,59.40
2023-02-17T09:44:23.518Z,58.55
2023-02-17T09:47:11.060Z,57.67
2023-02-17T09:49:41.691Z,59.27
2023-02-17T09:52:50.253Z,59.04
2023-02-17T09:55:18.665Z,58.28
2023-02-17T09:57:54.103Z,58.52
2023-02-17T10:00:30.831Z,58.03
2023-02-17T10:03:12.599Z,57.46
2023-02-17T10:06:02.973Z,56.80
2023-02-17T10:08:36.626Z,56.08
2023-02-17T10:11:09.772Z,57.02
2023-02-17T10:13:37.580Z,56.99
2023-02-17T10:16:11.379Z,57.31
2023-02-17T10:18:42.920Z,56.46
2023-02-17T10:21:20.755Z,56.54
2023-02-17T10:23:48.899Z,57.52
2023-02-17T10:26:31.895Z,59.18
2023-02-17T10:29:06.001Z,58.81
2023-02-17T10:31:47.801Z,57.31
2023-02-17T10:34:24.642Z,57.52
2023-02-17T10:37:02.139Z,56.63
2023-02-17T10:39:59.751Z,55.40
2023-02-17T10:42:30.721Z,55.89
2023-02-17T10:45:04.747Z,57.70
2023-02-17T10:47:32.659Z,56.88
2023-02-17T10:50:02.434Z,56.27
2023-02-17T10:52:48.786Z,57.76
2023-02-17T10:55:51.033Z,56.45
2023-02-17T10:58:23.521Z,57.03
2023-02-17T11:00:54.560Z,57.05
2023-02-17T11:03:23.356Z,58.00
2023-02-17T11:06:01.869Z,58.76
2023-02-17T11:08:32.512Z,59.10
2023-02-17T11:11:02.140Z,58.93
2023-02-17T11:13:41.622Z,59.04
2023-02-17T11:16:27.481Z,57.17
2023-02-17T11:18:55.462Z,57.43
2023-02-17T11:21:23.377Z,58.93
2023-02-17T11:24:00.794Z,59.05
2023-02-17T11:26:33.183Z,57.71
2023-02-17T11:29:20.081Z,56.44
2023-02-17T11:32:02.192Z,55.87
2023-02-17T11:34:31.574Z,53.77
2023-02-17T11:37:20.723Z,56.27
2023-02-17T11:39:50.461Z,55.24
2023-02-17T11:42:29.430Z,56.48
2023-02-17T11:44:59.020Z,56.40
2023-02-17T11:47:50.966Z,55.96
2023-02-17T11:50:35.318Z,58.46
2023-02-17T11:53:21.251Z,58.27
2023-02-17T11:56:00.705Z,58.93
2023-02-17T11:58:34.204Z,59.30
2023-02-17T12:01:37.000Z,60.71
2023-02-17T12:04:30.950Z,61.14
2023-02-17T12:07:07.978Z,63.33
2023-02-17T12:09:43.284Z,64.58
2023-02-17T12:12:35.396Z,64.81
2023-02-17T12:15:23.365Z,64.84
2023-02-17T12:18:10.065Z,64.58
2023-02-17T12:20:47.028Z,64.04
2023-02-17T12:23:42.240Z,64.95
2023-02-17T12:26:36.219Z,64.80
2023-02-17T12:29:34.088Z,65.32
2023-02-17T12:32:12.368Z,65.44
2023-02-17T12:34:54.026Z,65.58
2023-02-17T12:37:36.276Z,66.03
2023-02-17T12:40:32.264Z,65.94
2023-02-17T12:43:10.127Z,66.79
2023-02-17T12:45:42.776Z,66.03
2023-02-17T12:48:21.656Z,66.08
2023-02-17T12:51:13.938Z,64.87
2023-02-17T12:53:46.253Z,65.22
2023-02-17T12:56:52.148Z,65.18
2023-02-17T12:59:23.131Z,63.67
2023-02-17T13:02:07.503Z,64.83
2023-02-17T13:04:35.567Z,64.96
2023-02-17T13:07:41.791Z,64.51
2023-02-17T13:10:38.755Z,64.09
2023-02-17T13:13:29.077Z,63.39
2023-02-17T13:16:14.164Z,64.67
2023-02-17T13:18:43.390Z,65.88
2023-02-17T13:21:26.130Z,65.31
2023-02-17T13:24:08.804Z,65.32
2023-02-17T13:26:46.285Z,65.49
2023-02-17T13:29:25.982Z,66.08
2023-02-17T13:31:58.723Z,65.99
2023-02-17T13:34:37.601Z,66.05
2023-02-17T13:37:21.276Z,66.23
2023-02-17T13:39:49.077Z,66.67
2023-02-17T13:42:41.898Z,66.59
2023-02-17T13:45:18.729Z,66.04
2023-02-17T13:47:47.072Z,65.96
2023-02-17T13:50:31.316Z,65.84
2023-02-17T13:52:59.299Z,65.70
2023-02-17T13:55:27.210Z,65.23
2023-02-17T13:57:56.400Z,65.84
2023-02-17T14:00:25.558Z,65.02
2023-02-17T14:02:54.395Z,65.79
2023-02-17T14:05:38.497Z,65.51
2023-02-17T14:08:25.505Z,66.05
2023-02-17T14:10:53.383Z,65.71
2023-02-17T14:13:21.170Z,66.53
2023-02-17T14:15:57.148Z,65.91
2023-02-17T14:18:44.094Z,65.38
2023-02-17T14:21:13.828Z,66.16
2023-02-17T14:23:59.751Z,65.87
2023-02-17T14:26:49.133Z,64.98
2023-02-17T14:29:17.010Z,65.07
2023-02-17T14:31:46.129Z,65.37
2023-02-17T14:34:30.964Z,66.14
2023-02-17T14:37:17.425Z,66.24
2023-02-17T14:39:45.201Z,66.01
2023-02-17T14:42:12.983Z,66.05
2023-02-17T14:44:41.061Z,66.39
2023-02-17T14:47:08.914Z,66.12
2023-02-17T14:49:36.664Z,65.84
2023-02-17T14:52:21.481Z,66.07
2023-02-17T14:54:49.498Z,66.23
2023-02-17T14:57:17.569Z,66.31
2023-02-17T14:59:45.453Z,66.28
2023-02-17T15:02:18.050Z,66.80
2023-02-17T15:04:45.859Z,67.05
2023-02-17T15:07:15.584Z,67.29
2023-02-17T15:09:43.606Z,67.36
2023-02-17T15:12:16.779Z,67.81
2023-02-17T15:14:44.756Z,68.56
2023-02-17T15:17:12.621Z,68.30
2023-02-17T15:19:40.518Z,68.68
2023-02-17T15:22:08.370Z,68.41
2023-02-17T15:24:36.160Z,68.89
2023-02-17T15:27:04.465Z,68.98
2023-02-17T15:29:32.427Z,69.77
2023-02-17T15:32:04.754Z,69.31
2023-02-17T15:34:33.631Z,69.53
2023-02-17T15:37:01.713Z,69.42
2023-02-17T15:39:29.720Z,69.87
2023-02-17T15:41:57.666Z,70.13
2023-02-17T15:44:28.540Z,70.45
2023-02-17T15:46:56.664Z,70.50
2023-02-17T15:49:24.581Z,70.61
2023-02-17T15:51:52.677Z,70.87
2023-02-17T15:54:20.749Z,70.94
2023-02-17T15:56:50.665Z,71.19
2023-02-17T15:59:23.550Z,71.44
2023-02-17T16:01:51.944Z,72.04
2023-02-17T16:04:19.801Z,71.89
2023-02-17T16:06:47.622Z,71.98
2023-02-17T16:09:15.594Z,72.11
2023-02-17T16:11:53.392Z,72.38
2023-02-17T16:14:37.238Z,72.79
2023-02-17T16:17:05.225Z,73.79
2023-02-17T16:19:33.638Z,74.56
2023-02-17T16:22:01.448Z,75.65
2023-02-17T16:24:29.191Z,76.46
2023-02-17T16:26:57.545Z,77.30
2023-02-17T16:29:25.256Z,78.09
2023-02-17T16:31:53.716Z,78.54
2023-02-17T16:34:23.299Z,78.51
2023-02-17T16:36:52.727Z,78.51
2023-02-17T16:39:21.406Z,78.29
2023-02-17T16:41:50.429Z,78.54
2023-02-17T16:44:19.153Z,78.92
2023-02-17T16:46:56.779Z,78.94
2023-02-17T16:49:35.201Z,79.92
2023-02-17T16:52:04.538Z,79.62
2023-02-17T16:54:35.160Z,79.58
2023-02-17T16:57:03.418Z,79.51
2023-02-17T16:59:31.223Z,79.81
2023-02-17T17:01:59.385Z,80.09
2023-02-17T17:04:27.160Z,80.33
2023-02-17T17:06:55.220Z,81.64
2023-02-17T17:09:24.438Z,82.06
2023-02-17T17:11:52.389Z,82.84
2023-02-17T17:14:21.766Z,83.04
2023-02-17T17:16:55.577Z,83.78
2023-02-17T17:19:23.578Z,84.78
2023-02-17T17:21:51.401Z,84.65
2023-02-17T17:24:19.397Z,84.98
2023-02-17T17:26:47.955Z,85.62
2023-02-17T17:29:17.176Z,86.16
2023-02-17T17:31:45.190Z,86.82
2023-02-17T17:34:13.118Z,87.32
2023-02-17T17:36:41.704Z,87.29
2023-02-17T17:39:12.763Z,87.91
2023-02-17T17:41:40.608Z,87.79
2023-02-17T17:44:10.433Z,87.50
2023-02-17T17:46:38.585Z,87.41
2023-02-17T17:49:07.298Z,87.27
2023-02-17T17:51:36.012Z,86.77
2023-02-17T17:54:04.207Z,86.39
2023-02-17T17:56:34.010Z,86.04
2023-02-17T17:59:02.657Z,86.14
2023-02-17T18:01:30.443Z,85.73
2023-02-17T18:04:00.650Z,85.54
2023-02-17T18:06:29.822Z,86.16
2023-02-17T18:09:00.503Z,85.82
2023-02-17T18:11:28.558Z,85.87
2023-02-17T18:13:57.724Z,85.41
2023-02-17T18:16:25.848Z,85.68
2023-02-17T18:18:53.704Z,85.82
2023-02-17T18:21:21.541Z,85.66
2023-02-17T18:23:49.667Z,86.03
2023-02-17T18:26:17.897Z,85.76
2023-02-17T18:28:46.732Z,85.46
2023-02-17T18:31:15.335Z,85.01
2023-02-17T18:33:43.328Z,85.40
2023-02-17T18:36:16.454Z,84.88
2023-02-17T18:38:44.666Z,85.21
2023-02-17T18:41:26.566Z,85.42
2023-02-17T18:43:54.582Z,86.65
2023-02-17T18:46:22.448Z,87.12
2023-02-17T18:48:50.813Z,88.17
2023-02-17T18:51:20.487Z,89.73
2023-02-17T18:53:50.151Z,90.59
2023-02-17T18:56:22.948Z,90.61
2023-02-17T18:58:51.750Z,90.62
2023-02-17T19:01:21.305Z,90.44
2023-02-17T19:03:49.157Z,91.14
2023-02-17T19:06:18.285Z,91.06
2023-02-17T19:08:47.084Z,91.25
2023-02-17T19:11:15.816Z,91.43
2023-02-17T19:13:44.082Z,91.80
2023-02-17T19:16:13.595Z,91.99
2023-02-17T19:18:41.827Z,92.46
2023-02-17T19:21:09.671Z,92.35
2023-02-17T19:23:38.101Z,93.19
2023-02-17T19:26:07.998Z,93.16
2023-02-17T19:28:36.723Z,93.71
2023-02-17T19:31:08.419Z,93.56
2023-02-17T19:33:36.258Z,94.19
2023-02-17T19:36:11.240Z,93.80
2023-02-17T19:38:39.125Z,93.97
2023-02-17T19:41:08.396Z,93.62
2023-02-17T19:43:36.333Z,93.50
2023-02-17T19:46:04.523Z,93.01
2023-02-17T19:48:32.327Z,92.84
2023-02-17T19:51:04.656Z,92.21
2023-02-17T19:53:32.741Z,92.16
2023-02-17T19:56:23.019Z,92.22
2023-02-17T19:58:51.072Z,92.09
2023-02-17T20:01:23.753Z,91.71
2023-02-17T20:03:51.965Z,91.24
2023-02-17T20:06:22.935Z,90.90
2023-02-17T20:08:56.155Z,90.22
2023-02-17T20:11:30.147Z,89.57
2023-02-17T20:13:58.400Z,89.12
2023-02-17T20:16:26.508Z,89.07
2023-02-17T20:18:56.309Z,88.97
2023-02-17T20:21:26.153Z,88.92
2023-02-17T20:23:54.180Z,89.18
2023-02-17T20:26:24.022Z,89.04
2023-02-17T20:28:52.160Z,88.90
2023-02-17T20:31:20.138Z,89.58
2023-02-17T20:33:48.552Z,90.01
2023-02-17T20:36:16.589Z,90.34
2023-02-17T20:38:44.435Z,91.00
2023-02-17T20:41:15.209Z,91.35
2023-02-17T20:43:42.973Z,91.33
2023-02-17T20:46:24.024Z,91.72
2023-02-17T20:48:52.030Z,92.27
2023-02-17T20:51:20.132Z,92.50
2023-02-17T20:53:48.465Z,92.88
2023-02-17T20:56:18.900Z,92.92
2023-02-17T20:58:47.305Z,93.39
2023-02-17T21:01:15.444Z,93.76
2023-02-17T21:03:43.295Z,94.05
2023-02-17T21:06:40.646Z,94.36
2023-02-17T21:09:18.765Z,95.30
2023-02-17T21:11:46.855Z,95.31
2023-02-17T21:14:14.766Z,95.33
2023-02-17T21:16:42.754Z,94.95
2023-02-17T21:19:10.669Z,94.77
2023-02-17T21:21:38.510Z,95.33
2023-02-17T21:24:06.971Z,95.25
2023-02-17T21:26:34.954Z,94.92
2023-02-17T21:29:02.995Z,95.06
2023-02-17T21:31:30.911Z,95.03
2023-02-17T21:33:59.447Z,94.87
2023-02-17T21:36:29.170Z,94.78
2023-02-17T21:38:57.577Z,94.93
2023-02-17T21:41:26.076Z,95.01
2023-02-17T21:44:12.439Z,95.46
2023-02-17T21:46:41.510Z,95.05
2023-02-17T21:49:09.451Z,95.10
2023-02-17T21:51:38.269Z,95.83
2023-02-17T21:54:06.846Z,96.07
2023-02-17T21:56:34.738Z,95.85
2023-02-17T21:59:02.846Z,96.07
2023-02-17T22:01:30.845Z,96.66
2023-02-17T22:03:58.908Z,96.89
2023-02-17T22:06:31.434Z,97.45
2023-02-17T22:08:59.394Z,97.72
2023-02-17T22:11:34.189Z,97.37
2023-02-17T22:14:03.683Z,97.39
2023-02-17T22:16:35.912Z,97.11
2023-02-17T22:19:04.055Z,97.80
2023-02-17T22:21:31.824Z,96.81
2023-02-17T22:24:00.520Z,97.26
2023-02-17T22:26:28.814Z,96.85
2023-02-17T22:28:56.884Z,97.01
2023-02-17T22:31:26.627Z,97.22
2023-02-17T22:33:54.680Z,97.20
2023-02-17T22:36:23.814Z,97.29
2023-02-17T22:38:52.027Z,97.55
2023-02-17T22:41:21.409Z,97.10
2023-02-17T22:43:49.543Z,97.16
2023-02-17T22:46:19.261Z,97.18
2023-02-17T22:48:47.988Z,97.31
2023-02-17T22:51:17.869Z,97.46
2023-02-17T22:53:45.813Z,97.43
2023-02-17T22:56:13.845Z,97.17
2023-02-17T22:58:41.636Z,97.73
2023-02-17T23:01:10.510Z,98.41
2023-02-17T23:03:38.545Z,99.23
2023-02-17T23:06:12.162Z,98.82
2023-02-17T23:08:40.038Z,99.18
2023-02-17T23:11:08.840Z,99.88
2023-02-17T23:13:36.943Z,99.65
2023-02-17T23:16:04.885Z,100.00
2023-02-17T23:18:33.274Z,100.00
2023-02-17T23:21:01.298Z,100.00
2023-02-17T23:23:29.061Z,100.00
2023-02-17T23:25:57.039Z,100.00
2023-02-17T23:28:25.718Z,100.00
2023-02-17T23:30:53.908Z,100.00
2023-02-17T23:33:23.193Z,100.00
2023-02-17T23:35:51.102Z,100.00
2023-02-17T23:38:21.001Z,100.00
2023-02-17T23:40:52.858Z,100.00
2023-02-17T23:43:20.988Z,100.00
2023-02-17T23:45:48.792Z,100.00
2023-02-17T23:48:16.935Z,100.00
2023-02-17T23:50:44.824Z,100.00
2023-02-17T23:53:12.718Z,100.00
2023-02-17T23:55:40.668Z,100.00
2023-02-17T23:58:08.443Z,100.00
